Stanford, California
Current Conditions -  °F | °C
As of 4:56 AM on Friday 19 Dec 2014 (Local Time) from KNUQ Reporting Station
Broken Clouds Broken Clouds  
Wind Chill: 56°   Ceiling: 4800
Heat Index: 56°   Visibility: 10mi
Dew Point: 49°   Wind: 9mph
Humidity: 77%   Direction: 110°ESE
Pressure: 30.15"   Gusts: NA
Location:  37.43°N, 122.16°W
Report Text: KNUQ 191256Z 11008KT 10SM BKN048 BKN075 13/09 A3015 RMK AO2 SLP211 T01330094
Loading
Personal Weather Stations






























Interactive Weather Map New forecast layout! Learn more

10-Day Weather Forecast

Advertisements
Track Severe Weather on mobile